createdAt,value
2022-11-29T00:00:26.589Z,-1.19
2022-11-29T00:03:18.567Z,-1.31
2022-11-29T00:05:51.595Z,-1.38
2022-11-29T00:08:24.784Z,-1.41
2022-11-29T00:10:56.462Z,-1.48
2022-11-29T00:13:27.970Z,-1.54
2022-11-29T00:16:04.644Z,-1.59
2022-11-29T00:18:36.698Z,-1.64
2022-11-29T00:21:09.938Z,-1.68
2022-11-29T00:23:41.472Z,-1.72
2022-11-29T00:26:13.073Z,-1.73
2022-11-29T00:28:44.701Z,-1.72
2022-11-29T00:31:23.099Z,-1.67
2022-11-29T00:33:54.886Z,-1.59
2022-11-29T00:36:26.927Z,-1.50
2022-11-29T00:38:58.498Z,-1.40
2022-11-29T00:41:30.248Z,-1.33
2022-11-29T00:44:01.947Z,-1.25
2022-11-29T00:46:33.701Z,-1.19
2022-11-29T00:49:05.351Z,-1.18
2022-11-29T00:51:36.919Z,-1.17
2022-11-29T00:54:08.606Z,-1.10
2022-11-29T00:56:40.129Z,-1.04
2022-11-29T00:59:11.690Z,-1.04
2022-11-29T01:01:43.274Z,-1.10
2022-11-29T01:04:14.845Z,-1.15
2022-11-29T01:06:46.437Z,-1.24
2022-11-29T01:09:17.899Z,-1.33
2022-11-29T01:11:51.591Z,-1.41
2022-11-29T01:14:23.348Z,-1.49
2022-11-29T01:16:54.900Z,-1.59
2022-11-29T01:19:26.488Z,-1.68
2022-11-29T01:21:57.990Z,-1.78
2022-11-29T01:24:30.896Z,-1.89
2022-11-29T01:27:02.491Z,-1.95
2022-11-29T01:29:34.027Z,-2.01
2022-11-29T01:32:06.007Z,-2.05
2022-11-29T01:34:38.385Z,-2.13
2022-11-29T01:37:09.887Z,-2.22
2022-11-29T01:39:41.695Z,-2.28
2022-11-29T01:42:15.020Z,-2.32
2022-11-29T01:45:21.205Z,-2.36
2022-11-29T01:47:56.190Z,-2.42
2022-11-29T01:50:27.694Z,-2.46
2022-11-29T01:52:59.688Z,-2.47
2022-11-29T01:55:33.129Z,-2.45
2022-11-29T01:58:07.631Z,-2.37
2022-11-29T02:00:39.609Z,-2.31
2022-11-29T02:03:14.380Z,-2.23
2022-11-29T02:05:49.574Z,-2.11
2022-11-29T02:08:27.113Z,-2.00
2022-11-29T02:11:29.768Z,-1.96
2022-11-29T02:14:15.609Z,-1.89
2022-11-29T02:16:56.816Z,-1.79
2022-11-29T02:19:52.053Z,-1.81
2022-11-29T02:22:30.381Z,-1.83
2022-11-29T02:25:25.584Z,-1.86
2022-11-29T02:28:41.572Z,-1.88
2022-11-29T02:31:44.055Z,-1.92
2022-11-29T02:34:39.401Z,-1.95
2022-11-29T02:37:25.317Z,-2.05
2022-11-29T02:40:15.355Z,-2.13
2022-11-29T02:43:32.189Z,-2.24
2022-11-29T02:46:14.819Z,-2.32
2022-11-29T02:49:04.282Z,-2.38
2022-11-29T02:51:44.021Z,-2.49
2022-11-29T02:54:22.421Z,-2.54
2022-11-29T02:56:59.295Z,-2.55
2022-11-29T02:59:46.692Z,-2.59
2022-11-29T03:02:27.604Z,-2.64
2022-11-29T03:05:10.644Z,-2.70
2022-11-29T03:07:49.837Z,-2.74
2022-11-29T03:10:30.814Z,-2.77
2022-11-29T03:13:06.681Z,-2.79
2022-11-29T03:15:47.253Z,-2.83
2022-11-29T03:18:33.273Z,-2.89
2022-11-29T03:21:18.705Z,-2.97
2022-11-29T03:23:54.740Z,-3.02
2022-11-29T03:26:33.229Z,-3.05
2022-11-29T03:29:12.866Z,-3.03
2022-11-29T03:31:51.236Z,-2.99
2022-11-29T03:34:33.975Z,-2.94
2022-11-29T03:37:13.283Z,-2.87
2022-11-29T03:39:53.917Z,-2.79
2022-11-29T03:42:32.343Z,-2.74
2022-11-29T03:45:09.989Z,-2.65
2022-11-29T03:47:49.926Z,-2.59
2022-11-29T03:50:24.914Z,-2.50
2022-11-29T03:53:01.105Z,-2.51
2022-11-29T03:55:50.110Z,-2.50
2022-11-29T03:58:33.749Z,-2.47
2022-11-29T04:01:22.976Z,-2.42
2022-11-29T04:04:12.697Z,-2.41
2022-11-29T04:07:02.361Z,-2.46
2022-11-29T04:10:10.150Z,-2.50
2022-11-29T04:13:02.010Z,-2.55
2022-11-29T04:16:00.138Z,-2.61
2022-11-29T04:19:02.770Z,-2.74
2022-11-29T04:21:58.212Z,-2.79
2022-11-29T04:25:03.318Z,-2.84
2022-11-29T04:27:48.732Z,-2.90
2022-11-29T04:30:25.586Z,-2.96
2022-11-29T04:33:23.739Z,-3.02
2022-11-29T04:36:17.240Z,-3.07
2022-11-29T04:39:24.628Z,-3.12
2022-11-29T04:42:17.770Z,-3.19
2022-11-29T04:45:22.219Z,-3.25
2022-11-29T04:48:10.939Z,-3.30
2022-11-29T04:50:54.737Z,-3.37
2022-11-29T04:53:49.805Z,-3.42
2022-11-29T04:56:29.621Z,-3.47
2022-11-29T04:59:08.593Z,-3.51
2022-11-29T05:01:52.196Z,-3.54
2022-11-29T05:04:31.043Z,-3.58
2022-11-29T05:07:09.017Z,-3.61
2022-11-29T05:09:52.026Z,-3.58
2022-11-29T05:12:33.403Z,-3.54
2022-11-29T05:15:28.821Z,-3.47
2022-11-29T05:18:08.832Z,-3.39
2022-11-29T05:20:49.136Z,-3.29
2022-11-29T05:23:33.972Z,-3.17
2022-11-29T05:26:10.611Z,-3.05
2022-11-29T05:28:51.466Z,-2.95
2022-11-29T05:31:31.022Z,-2.86
2022-11-29T05:34:23.744Z,-2.75
2022-11-29T05:37:03.590Z,-2.65
2022-11-29T05:39:44.338Z,-2.63
2022-11-29T05:42:39.672Z,-2.63
2022-11-29T05:45:19.235Z,-2.60
2022-11-29T05:47:55.905Z,-2.65
2022-11-29T05:50:34.376Z,-2.76
2022-11-29T05:53:20.095Z,-2.82
2022-11-29T05:56:03.829Z,-2.87
2022-11-29T05:58:44.398Z,-2.92
2022-11-29T06:01:22.893Z,-2.98
2022-11-29T06:04:11.671Z,-3.04
2022-11-29T06:06:53.765Z,-3.10
2022-11-29T06:09:30.711Z,-3.14
2022-11-29T06:12:07.457Z,-3.18
2022-11-29T06:14:55.495Z,-3.24
2022-11-29T06:17:58.858Z,-3.29
2022-11-29T06:20:55.089Z,-3.36
2022-11-29T06:23:41.297Z,-3.42
2022-11-29T06:26:29.353Z,-3.47
2022-11-29T06:29:06.929Z,-3.50
2022-11-29T06:31:44.474Z,-3.51
2022-11-29T06:34:30.706Z,-3.52
2022-11-29T06:37:09.679Z,-3.55
2022-11-29T06:39:42.053Z,-3.55
2022-11-29T06:42:13.597Z,-3.57
2022-11-29T06:44:47.142Z,-3.57
2022-11-29T06:47:27.122Z,-3.53
2022-11-29T06:50:04.432Z,-3.47
2022-11-29T06:52:44.859Z,-3.38
2022-11-29T06:55:23.693Z,-3.25
2022-11-29T06:58:08.039Z,-3.15
2022-11-29T07:00:50.598Z,-3.02
2022-11-29T07:03:35.095Z,-2.84
2022-11-29T07:06:15.655Z,-2.72
2022-11-29T07:08:48.478Z,-2.59
2022-11-29T07:11:20.606Z,-2.44
2022-11-29T07:13:53.252Z,-2.32
2022-11-29T07:16:30.840Z,-2.25
2022-11-29T07:19:17.402Z,-2.18
2022-11-29T07:21:59.906Z,-2.11
2022-11-29T07:24:46.811Z,-2.06
2022-11-29T07:27:23.250Z,-1.96
2022-11-29T07:30:11.762Z,-1.88
2022-11-29T07:33:00.348Z,-1.81
2022-11-29T07:35:40.853Z,-1.78
2022-11-29T07:38:23.828Z,-1.70
2022-11-29T07:41:01.933Z,-1.63
2022-11-29T07:43:43.115Z,-1.54
2022-11-29T07:46:14.692Z,-1.08
2022-11-29T07:48:46.395Z,-0.51
2022-11-29T07:51:18.175Z,-0.45
2022-11-29T07:53:49.820Z,-0.44
2022-11-29T07:56:21.332Z,-0.39
2022-11-29T07:58:53.055Z,-0.38
2022-11-29T08:01:24.923Z,-0.36
2022-11-29T08:03:56.617Z,-0.31
2022-11-29T08:06:28.969Z,-0.23
2022-11-29T08:09:01.503Z,-0.10
2022-11-29T08:11:33.124Z,0.03
2022-11-29T08:14:06.425Z,0.24
2022-11-29T08:16:38.273Z,0.69
2022-11-29T08:19:10.059Z,1.68
2022-11-29T08:21:43.817Z,3.10
2022-11-29T08:24:15.556Z,4.57
2022-11-29T08:26:47.141Z,5.45
2022-11-29T08:29:19.515Z,5.76
2022-11-29T08:31:55.102Z,6.25
2022-11-29T08:34:27.207Z,6.76
2022-11-29T08:36:58.885Z,6.67
2022-11-29T08:39:30.610Z,6.61
2022-11-29T08:42:02.165Z,6.99
2022-11-29T08:44:34.035Z,7.30
2022-11-29T08:47:31.464Z,7.41
2022-11-29T08:50:02.997Z,7.35
2022-11-29T08:52:54.264Z,7.35
2022-11-29T08:55:28.724Z,7.41
2022-11-29T08:58:05.987Z,7.51
2022-11-29T09:00:38.462Z,7.68
2022-11-29T09:03:29.328Z,7.44
2022-11-29T09:06:10.504Z,7.10
2022-11-29T09:08:45.099Z,6.74
2022-11-29T09:11:19.838Z,6.55
2022-11-29T09:13:53.528Z,6.29
2022-11-29T09:16:25.342Z,6.22
2022-11-29T09:18:57.661Z,6.32
2022-11-29T09:21:30.652Z,5.88
2022-11-29T09:24:06.291Z,5.41
2022-11-29T09:26:40.693Z,4.92
2022-11-29T09:29:13.441Z,4.48
2022-11-29T09:31:45.447Z,4.16
2022-11-29T09:34:18.406Z,3.87
2022-11-29T09:36:49.977Z,3.53
2022-11-29T09:39:21.821Z,3.31
2022-11-29T09:42:27.199Z,3.20
2022-11-29T09:45:06.180Z,2.93
2022-11-29T09:48:04.536Z,2.82
2022-11-29T09:50:42.954Z,2.80
2022-11-29T09:53:43.592Z,2.70
2022-11-29T09:56:25.754Z,2.58
2022-11-29T09:59:01.980Z,2.55
2022-11-29T10:01:39.045Z,2.46
2022-11-29T10:04:15.695Z,2.46
2022-11-29T10:06:56.380Z,2.55
2022-11-29T10:09:34.534Z,2.91
2022-11-29T10:12:15.144Z,3.49
2022-11-29T10:14:54.079Z,4.06
2022-11-29T10:17:35.555Z,4.35
2022-11-29T10:20:15.458Z,4.44
2022-11-29T10:22:53.581Z,4.50
2022-11-29T10:25:29.484Z,4.60
2022-11-29T10:28:01.344Z,4.72
2022-11-29T10:30:35.988Z,5.01
2022-11-29T10:33:16.961Z,5.32
2022-11-29T10:35:52.217Z,5.58
2022-11-29T10:38:32.049Z,5.79
2022-11-29T10:41:09.029Z,5.95
2022-11-29T10:43:41.364Z,6.03
2022-11-29T10:46:20.237Z,6.06
2022-11-29T10:48:52.202Z,6.27
2022-11-29T10:51:23.968Z,6.52
2022-11-29T10:53:56.961Z,6.68
2022-11-29T10:56:37.615Z,6.61
2022-11-29T10:59:20.176Z,6.42
2022-11-29T11:01:52.472Z,6.30
2022-11-29T11:04:30.117Z,6.18
2022-11-29T11:07:03.894Z,5.99
2022-11-29T11:09:39.032Z,5.77
2022-11-29T11:12:23.179Z,5.67
2022-11-29T11:15:13.397Z,5.67
2022-11-29T11:17:58.546Z,5.69
2022-11-29T11:20:31.832Z,5.89
2022-11-29T11:23:05.762Z,6.10
2022-11-29T11:25:39.953Z,6.19
2022-11-29T11:28:21.563Z,6.22
2022-11-29T11:30:55.482Z,6.24
2022-11-29T11:33:30.189Z,6.20
2022-11-29T11:36:08.694Z,6.09
2022-11-29T11:38:42.458Z,5.96
2022-11-29T11:41:23.071Z,5.83
2022-11-29T11:43:59.094Z,5.72
2022-11-29T11:46:51.290Z,5.49
2022-11-29T11:49:34.556Z,5.36
2022-11-29T11:52:08.084Z,5.41
2022-11-29T11:54:52.286Z,5.50
2022-11-29T11:57:25.817Z,5.57
2022-11-29T12:00:05.008Z,5.58
2022-11-29T12:02:41.785Z,5.52
2022-11-29T12:05:18.134Z,5.40
2022-11-29T12:08:11.836Z,5.34
2022-11-29T12:10:45.605Z,5.29
2022-11-29T12:13:21.776Z,5.22
2022-11-29T12:15:54.427Z,5.12
2022-11-29T12:18:33.493Z,5.01
2022-11-29T12:21:11.416Z,4.97
2022-11-29T12:23:52.698Z,4.90
2022-11-29T12:26:58.612Z,4.85
2022-11-29T12:29:22.291Z,4.80
2022-11-29T12:32:16.011Z,4.78
2022-11-29T12:35:02.327Z,4.82
2022-11-29T12:37:40.967Z,4.86
2022-11-29T12:40:22.891Z,4.88
2022-11-29T12:43:04.449Z,4.95
2022-11-29T12:45:49.372Z,4.99
2022-11-29T12:48:31.974Z,5.03
2022-11-29T12:51:08.249Z,5.01
2022-11-29T12:54:00.273Z,4.98
2022-11-29T12:56:38.472Z,4.90
2022-11-29T12:59:23.651Z,4.86
2022-11-29T13:02:15.826Z,4.84
2022-11-29T13:05:00.059Z,4.80
2022-11-29T13:07:39.871Z,4.78
2022-11-29T13:10:40.052Z,4.74
2022-11-29T13:13:24.212Z,4.70
2022-11-29T13:16:04.930Z,4.74
2022-11-29T13:18:42.128Z,4.71
2022-11-29T13:21:16.674Z,4.70
2022-11-29T13:24:10.649Z,4.66
2022-11-29T13:26:44.622Z,4.67
2022-11-29T13:29:19.259Z,4.65
2022-11-29T13:31:52.295Z,4.61
2022-11-29T13:34:26.992Z,4.64
2022-11-29T13:37:14.116Z,4.66
2022-11-29T13:39:58.049Z,4.64
2022-11-29T13:42:34.035Z,4.57
2022-11-29T13:45:19.393Z,4.41
2022-11-29T13:47:56.104Z,4.21
2022-11-29T13:50:41.059Z,4.08
2022-11-29T13:53:18.525Z,3.99
2022-11-29T13:56:00.299Z,3.89
2022-11-29T13:58:40.608Z,3.85
2022-11-29T14:01:14.487Z,3.80
2022-11-29T14:03:48.919Z,3.76
2022-11-29T14:06:22.654Z,3.72
2022-11-29T14:09:25.897Z,3.67
2022-11-29T14:12:05.734Z,3.63
2022-11-29T14:14:42.866Z,3.64
2022-11-29T14:17:35.828Z,3.66
2022-11-29T14:20:50.545Z,3.69
2022-11-29T14:23:33.449Z,3.74
2022-11-29T14:26:29.880Z,3.78
2022-11-29T14:29:01.841Z,3.75
2022-11-29T14:31:54.713Z,3.70
2022-11-29T14:34:51.257Z,3.66
2022-11-29T14:37:55.149Z,3.65
2022-11-29T14:40:36.454Z,3.49
2022-11-29T14:43:21.773Z,3.41
2022-11-29T14:46:10.755Z,3.39
2022-11-29T14:48:46.856Z,3.36
2022-11-29T14:51:20.030Z,3.28
2022-11-29T14:54:04.873Z,3.16
2022-11-29T14:56:42.702Z,3.02
2022-11-29T14:59:52.587Z,2.94
2022-11-29T15:02:33.386Z,2.80
2022-11-29T15:05:20.299Z,2.65
2022-11-29T15:08:02.182Z,2.53
2022-11-29T15:10:38.177Z,2.43
2022-11-29T15:13:13.735Z,2.31
2022-11-29T15:16:22.279Z,2.28
2022-11-29T15:19:26.789Z,2.20
2022-11-29T15:22:03.821Z,2.20
2022-11-29T15:24:52.606Z,2.16
2022-11-29T15:27:25.033Z,2.03
2022-11-29T15:29:56.582Z,1.93
2022-11-29T15:32:32.481Z,1.91
2022-11-29T15:35:04.422Z,1.93
2022-11-29T15:37:44.921Z,1.94
2022-11-29T15:40:19.112Z,1.89
2022-11-29T15:42:53.260Z,1.87
2022-11-29T15:45:34.048Z,1.82
2022-11-29T15:48:18.945Z,1.69
2022-11-29T15:50:57.282Z,1.65
2022-11-29T15:53:34.585Z,1.70
2022-11-29T15:56:12.812Z,1.72
2022-11-29T15:58:46.141Z,1.70
2022-11-29T16:01:22.254Z,1.66
2022-11-29T16:03:58.069Z,1.59
2022-11-29T16:06:35.328Z,1.50
2022-11-29T16:09:10.920Z,1.40
2022-11-29T16:11:42.958Z,1.31
2022-11-29T16:14:22.641Z,1.18
2022-11-29T16:16:57.738Z,1.00
2022-11-29T16:19:32.926Z,0.89
2022-11-29T16:22:14.122Z,0.81
2022-11-29T16:25:01.077Z,0.77
2022-11-29T16:27:35.057Z,0.74
2022-11-29T16:30:08.864Z,0.70
2022-11-29T16:32:47.208Z,0.74
2022-11-29T16:35:25.406Z,0.81
2022-11-29T16:37:57.719Z,0.85
2022-11-29T16:40:31.173Z,0.81
2022-11-29T16:43:08.528Z,0.65
2022-11-29T16:45:42.076Z,0.61
2022-11-29T16:51:25.907Z,0.48
2022-11-29T16:54:17.458Z,0.36
2022-11-29T16:56:49.668Z,0.26
2022-11-29T16:59:26.606Z,0.16
2022-11-29T17:02:00.105Z,0.08
2022-11-29T17:04:31.822Z,0.06
2022-11-29T17:07:03.372Z,-0.01
2022-11-29T17:09:36.239Z,-0.07
2022-11-29T17:12:12.807Z,-0.11
2022-11-29T17:14:44.506Z,-0.11
2022-11-29T17:17:18.113Z,-0.07
2022-11-29T17:19:49.572Z,-0.03
2022-11-29T17:22:21.169Z,-0.07
2022-11-29T17:24:53.237Z,-0.04
2022-11-29T17:27:25.056Z,-0.01
2022-11-29T17:29:56.623Z,0.04
2022-11-29T17:32:28.296Z,0.09
2022-11-29T17:35:00.900Z,0.15
2022-11-29T17:37:32.952Z,0.15
2022-11-29T17:40:07.104Z,0.15
2022-11-29T17:42:39.387Z,0.17
2022-11-29T17:45:12.344Z,0.13
2022-11-29T17:47:44.215Z,0.12
2022-11-29T17:50:16.033Z,0.10
2022-11-29T17:52:47.585Z,0.06
2022-11-29T17:55:21.118Z,-0.01
2022-11-29T17:57:53.065Z,-0.06
2022-11-29T18:00:27.056Z,-0.08
2022-11-29T18:02:58.587Z,-0.08
2022-11-29T18:05:34.498Z,-0.08
2022-11-29T18:08:06.905Z,-0.14
2022-11-29T18:10:38.575Z,-0.20
2022-11-29T18:13:10.140Z,-0.22
2022-11-29T18:15:41.834Z,-0.22
2022-11-29T18:18:13.583Z,-0.20
2022-11-29T18:20:45.084Z,-0.19
2022-11-29T18:23:16.621Z,-0.15
2022-11-29T18:25:57.659Z,-0.10
2022-11-29T18:28:30.521Z,-0.09
2022-11-29T18:31:07.120Z,-0.18
2022-11-29T18:33:39.203Z,-0.28
2022-11-29T18:36:13.124Z,-0.32
2022-11-29T18:38:46.464Z,-0.37
2022-11-29T18:41:20.248Z,-0.31
2022-11-29T18:43:50.785Z,-0.20
2022-11-29T18:46:24.124Z,-0.11
2022-11-29T18:48:55.681Z,-0.15
2022-11-29T18:51:27.746Z,-0.18
2022-11-29T18:53:59.879Z,-0.16
2022-11-29T18:56:34.353Z,-0.18
2022-11-29T18:59:08.579Z,-0.17
2022-11-29T19:01:42.747Z,-0.19
2022-11-29T19:04:16.552Z,-0.18
2022-11-29T19:06:48.480Z,-0.14
2022-11-29T19:09:22.596Z,-0.16
2022-11-29T19:11:54.102Z,-0.18
2022-11-29T19:14:26.648Z,-0.15
2022-11-29T19:16:58.247Z,-0.10
2022-11-29T19:19:31.251Z,-0.10
2022-11-29T19:22:02.993Z,-0.02
2022-11-29T19:24:34.529Z,0.06
2022-11-29T19:27:06.317Z,0.03
2022-11-29T19:29:39.739Z,0.07
2022-11-29T19:32:11.643Z,0.11
2022-11-29T19:34:43.176Z,0.14
2022-11-29T19:37:14.811Z,0.13
2022-11-29T19:39:46.538Z,0.14
2022-11-29T19:42:18.486Z,0.15
2022-11-29T19:47:41.894Z,0.20
2022-11-29T19:50:13.893Z,0.19
2022-11-29T19:52:45.460Z,0.15
2022-11-29T19:55:17.585Z,0.15
2022-11-29T19:57:49.187Z,0.13
2022-11-29T20:00:22.713Z,0.19
2022-11-29T20:02:52.795Z,0.24
2022-11-29T20:05:24.539Z,0.33
2022-11-29T20:07:56.206Z,0.39
2022-11-29T20:10:28.612Z,0.49
2022-11-29T20:13:00.368Z,0.51
2022-11-29T20:15:32.006Z,0.56
2022-11-29T20:18:04.683Z,0.59
2022-11-29T20:20:37.268Z,0.54
2022-11-29T20:23:08.861Z,0.58
2022-11-29T20:25:40.409Z,0.65
2022-11-29T20:28:12.051Z,0.70
2022-11-29T20:30:44.618Z,0.65
2022-11-29T20:33:21.129Z,0.64
2022-11-29T20:36:00.526Z,0.61
2022-11-29T20:38:38.583Z,0.51
2022-11-29T20:41:16.406Z,0.40
2022-11-29T20:43:51.325Z,0.41
2022-11-29T20:46:25.722Z,0.45
2022-11-29T20:49:04.737Z,0.46
2022-11-29T20:51:45.837Z,0.42
2022-11-29T20:54:20.083Z,0.42
2022-11-29T20:56:51.681Z,0.47
2022-11-29T20:59:24.674Z,0.42
2022-11-29T21:01:57.577Z,0.32
2022-11-29T21:04:29.364Z,0.21
2022-11-29T21:07:00.919Z,0.19
2022-11-29T21:09:32.445Z,0.20
2022-11-29T21:12:04.884Z,0.20
2022-11-29T21:14:38.004Z,0.17
2022-11-29T21:17:11.380Z,0.13
2022-11-29T21:19:44.134Z,0.07
2022-11-29T21:22:23.794Z,0.08
2022-11-29T21:25:05.230Z,0.03
2022-11-29T21:27:37.712Z,-0.05
2022-11-29T21:30:19.011Z,-0.06
2022-11-29T21:32:52.417Z,-0.14
2022-11-29T21:35:23.992Z,-0.11
2022-11-29T21:37:59.593Z,-0.08
2022-11-29T21:40:31.118Z,-0.02
2022-11-29T21:43:02.568Z,0.01
2022-11-29T21:45:34.300Z,-0.02
2022-11-29T21:48:26.582Z,-0.05
2022-11-29T21:50:58.088Z,-0.05
2022-11-29T21:53:29.854Z,0.01
2022-11-29T21:56:03.034Z,0.02
2022-11-29T21:58:36.742Z,0.00
2022-11-29T22:01:14.485Z,-0.05
2022-11-29T22:03:46.510Z,-0.11
2022-11-29T22:06:20.366Z,-0.16
2022-11-29T22:08:52.143Z,-0.22
2022-11-29T22:11:31.916Z,-0.27
2022-11-29T22:14:18.423Z,-0.29
2022-11-29T22:16:52.177Z,-0.30
2022-11-29T22:19:23.381Z,-0.33
2022-11-29T22:21:56.556Z,-0.28
2022-11-29T22:24:30.034Z,-0.31
2022-11-29T22:27:00.236Z,-0.32
2022-11-29T22:29:31.760Z,-0.25
2022-11-29T22:32:03.249Z,-0.21
2022-11-29T22:34:34.753Z,-0.22
2022-11-29T22:37:06.309Z,-0.23
2022-11-29T22:39:37.801Z,-0.23
2022-11-29T22:42:09.388Z,-0.21
2022-11-29T22:44:40.877Z,-0.16
2022-11-29T22:47:13.301Z,-0.14
2022-11-29T22:49:45.294Z,-0.13
2022-11-29T22:52:16.944Z,-0.15
2022-11-29T22:54:48.626Z,-0.17
2022-11-29T22:57:20.322Z,-0.11
2022-11-29T22:59:51.780Z,-0.14
2022-11-29T23:02:23.394Z,-0.12
2022-11-29T23:04:55.030Z,-0.11
2022-11-29T23:07:26.692Z,-0.11
2022-11-29T23:09:58.349Z,-0.15
2022-11-29T23:12:29.843Z,-0.11
2022-11-29T23:15:02.048Z,-0.07
2022-11-29T23:17:33.745Z,-0.04
2022-11-29T23:20:06.080Z,-0.02
2022-11-29T23:22:39.274Z,0.03
2022-11-29T23:25:11.472Z,-0.07
2022-11-29T23:27:43.043Z,-0.13
2022-11-29T23:30:16.733Z,-0.20
2022-11-29T23:32:48.226Z,-0.30
2022-11-29T23:35:19.812Z,-0.33
2022-11-29T23:37:51.456Z,-0.36
2022-11-29T23:40:22.953Z,-0.39
2022-11-29T23:42:54.993Z,-0.44
2022-11-29T23:45:26.545Z,-0.52
2022-11-29T23:47:58.179Z,-0.52
2022-11-29T23:50:30.083Z,-0.47
2022-11-29T23:53:01.851Z,-0.50
2022-11-29T23:55:33.351Z,-0.49
2022-11-29T23:58:05.037Z,-0.48
